Terminal Aerodrome Forecast
Issued by NWS Wilmington, NC

Home | Current Version | Previous Version | Text Only | Print | Product List | Glossary On
Versions: 1 2 3 4 5 6 7 8 9 10 11 12 13 14 15
000
FTUS42 KILM 291801 CCA
TAFFLO
TAF COR
KFLO 291801Z 2918/3018 09009KT P6SM VCTS SCT022 BKN029CB OVC040
     FM292000 15008KT P6SM VCSH SCT040 SCT110 SCT250
     FM300900 17003KT 5SM BR VCSH SCT030 OVC250
     FM301300 22006KT P6SM VCSH SCT030 BKN080=

USA.gov is the U.S. government's official web portal to all federal, state and local government web resources and services.